Terminal Aerodrome Forecast
Issued by NWS Paducah, KY

Home | Current Version | Previous Version | Text Only | Print | Product List | Glossary On
Versions: 1 2 3 4 5 6 7 8 9 10 11 12 13 14 15 16 17
000
FTUS43 KPAH 231600 AAA
TAFPAH
TAF AMD
KPAH 231622Z 2316/2412 14010KT P6SM OVC015
     FM231800 15012KT 3SM RA BR OVC005
      TEMPO 2318/2320 2SM SHRA BR OVC003
     FM240000 19013G23KT P6SM OVC015=

USA.gov is the U.S. government's official web portal to all federal, state and local government web resources and services.